createdAt,value
2023-03-07T00:00:20.534Z,96482.84
2023-03-07T00:02:50.702Z,96462.00
2023-03-07T00:05:17.421Z,96466.53
2023-03-07T00:07:44.029Z,96470.63
2023-03-07T00:10:11.117Z,96457.03
2023-03-07T00:12:37.704Z,96464.69
2023-03-07T00:15:04.725Z,96455.41
2023-03-07T00:17:31.327Z,96461.66
2023-03-07T00:19:57.974Z,96460.38
2023-03-07T00:22:24.614Z,96457.03
2023-03-07T00:24:51.227Z,96446.59
2023-03-07T00:27:17.848Z,96442.06
2023-03-07T00:29:44.476Z,96440.81
2023-03-07T00:32:11.122Z,96438.16
2023-03-07T00:34:37.777Z,96437.06
2023-03-07T00:37:04.399Z,96435.78
2023-03-07T00:39:31.129Z,96424.00
2023-03-07T00:41:57.970Z,96430.53
2023-03-07T00:44:25.530Z,96420.19
2023-03-07T00:46:52.192Z,96418.59
2023-03-07T00:49:20.451Z,96417.94
2023-03-07T00:51:47.674Z,96414.16
2023-03-07T00:54:14.718Z,96416.94
2023-03-07T00:56:41.407Z,96405.66
2023-03-07T00:59:08.485Z,96398.75
2023-03-07T01:01:35.531Z,96413.91
2023-03-07T01:04:02.187Z,96399.88
2023-03-07T01:06:30.144Z,96389.34
2023-03-07T01:08:58.891Z,96383.94
2023-03-07T01:11:26.421Z,96376.88
2023-03-07T01:13:55.605Z,96376.13
2023-03-07T01:16:23.768Z,96376.00
2023-03-07T01:18:51.915Z,96370.13
2023-03-07T01:21:20.587Z,96352.16
2023-03-07T01:23:47.740Z,96355.16
2023-03-07T01:26:19.288Z,96355.41
2023-03-07T01:28:46.083Z,96345.84
2023-03-07T01:31:13.379Z,96340.16
2023-03-07T01:33:41.198Z,96328.16
2023-03-07T01:36:34.557Z,96327.56
2023-03-07T01:39:07.322Z,96316.22
2023-03-07T01:41:37.035Z,96316.03
2023-03-07T01:44:07.872Z,96308.03
2023-03-07T01:46:53.536Z,96307.75
2023-03-07T01:49:25.682Z,96294.19
2023-03-07T01:52:00.239Z,96289.59
2023-03-07T01:54:27.139Z,96283.22
2023-03-07T01:56:54.349Z,96275.25
2023-03-07T01:59:32.243Z,96267.56
2023-03-07T02:02:01.261Z,96257.56
2023-03-07T02:04:33.362Z,96256.78
2023-03-07T02:07:00.966Z,96244.88
2023-03-07T02:09:28.094Z,96235.13
2023-03-07T02:11:56.794Z,96226.72
2023-03-07T02:14:23.677Z,96215.38
2023-03-07T02:16:50.302Z,96204.88
2023-03-07T02:23:44.435Z,96170.97
2023-03-07T02:26:19.339Z,96151.50
2023-03-07T02:28:46.083Z,96146.31
2023-03-07T02:31:12.929Z,96132.53
2023-03-07T02:33:40.780Z,96123.78
2023-03-07T02:36:13.144Z,96126.19
2023-03-07T02:38:47.934Z,96103.19
2023-03-07T02:41:15.870Z,96092.50
2023-03-07T02:43:42.518Z,96098.00
2023-03-07T02:46:09.868Z,96085.69
2023-03-07T02:48:36.525Z,96080.31
2023-03-07T02:51:03.401Z,96064.94
2023-03-07T02:53:30.162Z,96056.16
2023-03-07T02:55:56.781Z,96054.25
2023-03-07T02:58:23.654Z,96040.66
2023-03-07T03:00:50.406Z,96038.38
2023-03-07T03:03:17.067Z,96023.44
2023-03-07T03:05:43.685Z,96014.66
2023-03-07T03:08:10.371Z,96018.44
2023-03-07T03:10:37.021Z,96012.09
2023-03-07T03:13:03.923Z,96004.00
2023-03-07T03:15:30.685Z,96006.75
2023-03-07T03:17:57.482Z,95998.47
2023-03-07T03:20:25.406Z,95995.91
2023-03-07T03:22:52.387Z,95992.81
2023-03-07T03:25:21.027Z,95987.16
2023-03-07T03:27:47.909Z,95985.69
2023-03-07T03:30:14.639Z,95975.03
2023-03-07T03:32:41.615Z,95971.63
2023-03-07T03:35:10.322Z,95961.38
2023-03-07T03:37:37.578Z,95961.38
2023-03-07T03:40:14.087Z,95957.03
2023-03-07T03:42:42.356Z,95955.41
2023-03-07T03:45:10.343Z,95949.25
2023-03-07T03:47:37.749Z,95945.22
2023-03-07T03:50:05.163Z,95934.69
2023-03-07T03:52:31.985Z,95928.50
2023-03-07T03:54:58.605Z,95933.56
2023-03-07T03:57:26.029Z,95926.59
2023-03-07T03:59:52.721Z,95919.13
2023-03-07T04:02:19.576Z,95915.25
2023-03-07T04:04:46.496Z,95903.25
2023-03-07T04:07:13.153Z,95907.44
2023-03-07T04:09:39.810Z,95898.53
2023-03-07T04:12:06.866Z,95891.28
2023-03-07T04:14:33.958Z,95893.72
2023-03-07T04:17:00.623Z,95887.69
2023-03-07T04:19:29.443Z,95881.41
2023-03-07T04:21:56.669Z,95885.75
2023-03-07T04:24:23.391Z,95874.75
2023-03-07T04:26:50.205Z,95881.88
2023-03-07T04:29:17.022Z,95870.03
2023-03-07T04:31:50.539Z,95874.09
2023-03-07T04:34:17.310Z,95877.00
2023-03-07T04:36:43.929Z,95869.88
2023-03-07T04:39:12.368Z,95873.28
2023-03-07T04:41:39.432Z,95868.09
2023-03-07T04:44:11.281Z,95865.97
2023-03-07T04:46:37.893Z,95870.69
2023-03-07T04:49:05.066Z,95868.25
2023-03-07T04:51:31.820Z,95864.69
2023-03-07T04:53:58.466Z,95865.50
2023-03-07T04:56:26.065Z,95859.53
2023-03-07T04:58:53.172Z,95861.13
2023-03-07T05:01:19.885Z,95864.38
2023-03-07T05:03:47.536Z,95860.97
2023-03-07T05:06:16.405Z,95858.22
2023-03-07T05:08:47.596Z,95854.97
2023-03-07T05:11:14.564Z,95864.34
2023-03-07T05:13:41.565Z,95864.34
2023-03-07T05:16:08.639Z,95867.13
2023-03-07T05:18:35.454Z,95863.38
2023-03-07T05:21:02.511Z,95865.97
2023-03-07T05:23:29.856Z,95855.94
2023-03-07T05:25:56.663Z,95852.56
2023-03-07T05:28:24.590Z,95865.34
2023-03-07T05:30:51.940Z,95853.53
2023-03-07T05:33:18.628Z,95852.22
2023-03-07T05:35:45.370Z,95861.28
2023-03-07T05:38:12.840Z,95862.28
2023-03-07T05:40:40.202Z,95866.81
2023-03-07T05:43:07.894Z,95859.84
2023-03-07T05:45:34.927Z,95869.56
2023-03-07T05:48:01.526Z,95876.03
2023-03-07T05:50:28.750Z,95867.47
2023-03-07T05:52:55.323Z,95872.81
2023-03-07T05:55:24.542Z,95874.44
2023-03-07T05:57:51.565Z,95872.00
2023-03-07T06:00:18.547Z,95873.47
2023-03-07T06:02:52.493Z,95877.19
2023-03-07T06:05:19.085Z,95880.59
2023-03-07T06:07:46.742Z,95878.66
2023-03-07T06:10:14.714Z,95872.19
2023-03-07T06:12:41.471Z,95868.75
2023-03-07T06:15:08.989Z,95871.22
2023-03-07T06:17:36.092Z,95878.97
2023-03-07T06:20:04.206Z,95880.59
2023-03-07T06:22:32.175Z,95885.47
2023-03-07T06:25:00.859Z,95883.84
2023-03-07T06:27:27.427Z,95881.56
2023-03-07T06:29:54.101Z,95883.84
2023-03-07T06:32:20.695Z,95889.66
2023-03-07T06:34:47.192Z,95890.31
2023-03-07T06:37:13.961Z,95890.00
2023-03-07T06:39:40.541Z,95900.22
2023-03-07T06:42:07.013Z,95902.31
2023-03-07T06:44:33.902Z,95905.69
2023-03-07T06:47:00.599Z,95919.47
2023-03-07T06:49:27.272Z,95925.97
2023-03-07T06:51:53.744Z,95932.13
2023-03-07T06:54:20.628Z,95949.13
2023-03-07T06:56:47.165Z,95946.72
2023-03-07T06:59:17.673Z,95955.13
2023-03-07T07:01:45.421Z,95961.28
2023-03-07T07:04:12.224Z,95968.59
2023-03-07T07:06:41.288Z,95971.34
2023-03-07T07:09:07.895Z,95980.25
2023-03-07T07:11:38.821Z,95981.06
2023-03-07T07:14:09.028Z,95987.75
2023-03-07T07:16:37.192Z,95998.91
2023-03-07T07:19:04.905Z,95996.00
2023-03-07T07:21:31.688Z,96003.16
2023-03-07T07:23:58.473Z,96004.47
2023-03-07T07:26:26.499Z,96005.13
2023-03-07T07:28:53.456Z,96011.44
2023-03-07T07:31:20.019Z,96015.31
2023-03-07T07:33:46.569Z,96008.66
2023-03-07T07:36:15.115Z,96013.22
2023-03-07T07:38:41.956Z,96005.94
2023-03-07T07:41:08.506Z,96004.47
2023-03-07T07:43:35.221Z,96005.75
2023-03-07T07:46:10.030Z,96009.00
2023-03-07T07:48:36.990Z,96006.41
2023-03-07T07:51:03.969Z,96004.44
2023-03-07T07:53:31.045Z,95994.41
2023-03-07T07:55:57.826Z,95994.41
2023-03-07T07:58:24.794Z,96006.75
2023-03-07T08:00:51.839Z,96002.81
2023-03-07T08:03:18.652Z,96005.44
2023-03-07T08:05:45.911Z,96009.16
2023-03-07T08:08:12.365Z,95999.59
2023-03-07T08:10:43.074Z,96007.03
2023-03-07T08:13:12.843Z,95999.41
2023-03-07T08:15:39.658Z,96009.28
2023-03-07T08:18:08.393Z,95997.94
2023-03-07T08:20:35.606Z,95999.56
2023-03-07T08:23:02.084Z,95992.09
2023-03-07T08:25:28.600Z,95989.66
2023-03-07T08:27:55.327Z,95992.09
2023-03-07T08:30:22.658Z,95993.22
2023-03-07T08:32:50.333Z,95989.50
2023-03-07T08:35:17.205Z,95993.56
2023-03-07T08:37:43.695Z,95994.50
2023-03-07T08:40:10.381Z,95992.25
2023-03-07T08:42:36.868Z,95999.06
2023-03-07T08:45:03.711Z,95991.75
2023-03-07T08:47:30.302Z,95992.22
2023-03-07T08:49:57.427Z,95983.44
2023-03-07T08:52:23.913Z,95981.97
2023-03-07T08:54:50.419Z,95980.16
2023-03-07T08:57:16.925Z,95979.66
2023-03-07T08:59:43.411Z,95976.44
2023-03-07T09:02:10.703Z,95959.19
2023-03-07T09:04:37.439Z,95970.22
2023-03-07T09:07:04.021Z,95977.78
2023-03-07T09:09:30.650Z,95977.25
2023-03-07T09:11:57.264Z,95966.56
2023-03-07T09:14:30.123Z,95960.03
2023-03-07T09:16:57.340Z,95950.66
2023-03-07T09:19:23.872Z,95947.31
2023-03-07T09:21:50.567Z,95935.44
2023-03-07T09:24:18.198Z,95929.56
2023-03-07T09:26:44.758Z,95920.66
2023-03-07T09:29:11.307Z,95913.91
2023-03-07T09:31:38.603Z,95914.28
2023-03-07T09:34:06.985Z,95918.25
2023-03-07T09:36:34.760Z,95905.75
2023-03-07T09:39:01.288Z,95895.84
2023-03-07T09:41:33.872Z,95880.09
2023-03-07T09:44:04.122Z,95872.38
2023-03-07T09:47:02.774Z,95859.72
2023-03-07T09:49:34.214Z,95846.06
2023-03-07T09:52:01.194Z,95845.25
2023-03-07T09:54:38.755Z,95838.16
2023-03-07T09:57:06.334Z,95816.00
2023-03-07T09:59:33.652Z,95811.75
2023-03-07T10:02:18.907Z,95806.00
2023-03-07T10:04:54.350Z,95801.34
2023-03-07T10:07:21.073Z,95790.03
2023-03-07T10:09:47.567Z,95784.22
2023-03-07T10:12:14.282Z,95789.25
2023-03-07T10:14:51.125Z,95777.63
2023-03-07T10:17:27.360Z,95764.38
2023-03-07T10:19:54.570Z,95766.50
2023-03-07T10:22:30.107Z,95762.00
2023-03-07T10:24:59.574Z,95760.06
2023-03-07T10:27:26.571Z,95763.22
2023-03-07T10:29:54.008Z,95739.78
2023-03-07T10:32:27.279Z,95732.41
2023-03-07T10:34:56.006Z,95730.69
2023-03-07T10:37:22.676Z,95728.38
2023-03-07T10:39:49.129Z,95719.81
2023-03-07T10:42:15.721Z,95710.28
2023-03-07T10:44:45.164Z,95703.94
2023-03-07T10:47:17.876Z,95703.84
2023-03-07T10:49:45.401Z,95705.91
2023-03-07T10:52:31.543Z,95701.63
2023-03-07T10:55:16.516Z,95706.53
2023-03-07T10:57:42.995Z,95692.00
2023-03-07T11:00:13.369Z,95683.75
2023-03-07T11:02:44.811Z,95672.28
2023-03-07T11:05:25.610Z,95669.91
2023-03-07T11:07:52.174Z,95666.25
2023-03-07T11:10:26.133Z,95659.47
2023-03-07T11:12:52.658Z,95658.00
2023-03-07T11:15:21.623Z,95639.09
2023-03-07T11:17:48.232Z,95636.03
2023-03-07T11:20:19.219Z,95630.00
2023-03-07T11:22:46.272Z,95634.56
2023-03-07T11:25:12.660Z,95641.53
2023-03-07T11:27:45.486Z,95629.66
2023-03-07T11:30:12.299Z,95635.75
2023-03-07T11:32:39.617Z,95605.50
2023-03-07T11:35:06.946Z,95596.28
2023-03-07T11:37:40.048Z,95595.53
2023-03-07T11:40:09.549Z,95592.59
2023-03-07T11:42:41.858Z,95601.09
2023-03-07T11:45:28.721Z,95596.03
2023-03-07T11:48:21.452Z,95594.47
2023-03-07T11:50:53.204Z,95586.84
2023-03-07T11:53:19.739Z,95594.63
2023-03-07T11:56:04.995Z,95598.25
2023-03-07T11:58:47.020Z,95590.06
2023-03-07T12:01:32.446Z,95584.06
2023-03-07T12:03:59.815Z,95574.91
2023-03-07T12:06:33.648Z,95564.31
2023-03-07T12:09:19.344Z,95566.53
2023-03-07T12:12:01.874Z,95554.91
2023-03-07T12:14:47.306Z,95551.91
2023-03-07T12:17:27.962Z,95540.28
2023-03-07T12:20:00.639Z,95526.47
2023-03-07T12:22:27.762Z,95523.41
2023-03-07T12:25:13.072Z,95532.34
2023-03-07T12:27:42.578Z,95522.31
2023-03-07T12:30:16.984Z,95531.34
2023-03-07T12:32:43.854Z,95519.03
2023-03-07T12:35:19.525Z,95506.84
2023-03-07T12:37:58.160Z,95508.69
2023-03-07T12:40:38.642Z,95510.50
2023-03-07T12:43:11.242Z,95510.34
2023-03-07T12:46:04.247Z,95497.84
2023-03-07T12:48:34.373Z,95503.47
2023-03-07T12:51:04.492Z,95509.63
2023-03-07T12:53:42.784Z,95506.50
2023-03-07T12:56:15.540Z,95507.56
2023-03-07T12:58:43.101Z,95494.72
2023-03-07T13:01:13.265Z,95495.72
2023-03-07T13:03:58.598Z,95499.81
2023-03-07T13:06:25.179Z,95502.13
2023-03-07T13:08:52.978Z,95503.50
2023-03-07T13:11:21.781Z,95495.09
2023-03-07T13:13:49.110Z,95497.50
2023-03-07T13:16:34.327Z,95503.56
2023-03-07T13:19:19.637Z,95478.59
2023-03-07T13:21:46.227Z,95490.84
2023-03-07T13:24:31.544Z,95499.66
2023-03-07T13:26:58.006Z,95490.63
2023-03-07T13:29:44.673Z,95494.72
2023-03-07T13:32:31.494Z,95488.03
2023-03-07T13:34:57.994Z,95482.97
2023-03-07T13:37:44.090Z,95486.63
2023-03-07T13:40:28.075Z,95485.00
2023-03-07T13:42:54.583Z,95478.56
2023-03-07T13:45:47.616Z,95485.78
2023-03-07T13:48:36.125Z,95488.84
2023-03-07T13:51:03.249Z,95489.06
2023-03-07T13:53:36.216Z,95499.91
2023-03-07T13:56:02.670Z,95479.97
2023-03-07T13:58:33.159Z,95474.38
2023-03-07T14:01:00.665Z,95477.56
2023-03-07T14:03:46.359Z,95475.13
2023-03-07T14:06:22.112Z,95474.97
2023-03-07T14:08:48.982Z,95464.53
2023-03-07T14:11:30.606Z,95473.56
2023-03-07T14:14:06.339Z,95470.19
2023-03-07T14:16:39.527Z,95465.16
2023-03-07T14:19:11.253Z,95462.13
2023-03-07T14:21:41.693Z,95458.16
2023-03-07T14:24:10.782Z,95467.16
2023-03-07T14:26:40.766Z,95466.53
2023-03-07T14:29:22.056Z,95453.69
2023-03-07T14:31:58.170Z,95462.97
2023-03-07T14:34:24.604Z,95456.16
2023-03-07T14:36:53.779Z,95458.75
2023-03-07T14:39:20.278Z,95459.34
2023-03-07T14:41:46.910Z,95451.38
2023-03-07T14:44:28.557Z,95454.75
2023-03-07T14:46:54.972Z,95455.38
2023-03-07T14:49:28.203Z,95456.91
2023-03-07T14:51:54.801Z,95459.75
2023-03-07T14:54:21.896Z,95448.13
2023-03-07T14:56:49.818Z,95446.91
2023-03-07T14:59:27.716Z,95439.06
2023-03-07T15:01:55.088Z,95436.69
2023-03-07T15:04:23.197Z,95436.09
2023-03-07T15:06:53.083Z,95438.06
2023-03-07T15:09:19.887Z,95438.44
2023-03-07T15:12:21.953Z,95426.00
2023-03-07T15:14:54.732Z,95430.66
2023-03-07T15:17:22.654Z,95426.63
2023-03-07T15:19:53.840Z,95431.63
2023-03-07T15:22:27.564Z,95432.19
2023-03-07T15:24:54.138Z,95426.16
2023-03-07T15:27:22.781Z,95429.75
2023-03-07T15:29:49.348Z,95425.38
2023-03-07T15:32:28.801Z,95425.53
2023-03-07T15:35:01.226Z,95430.75
2023-03-07T15:37:28.627Z,95425.69
2023-03-07T15:40:01.185Z,95428.50
2023-03-07T15:42:29.975Z,95427.91
2023-03-07T15:44:57.127Z,95434.47
2023-03-07T15:47:24.066Z,95441.31
2023-03-07T15:49:51.406Z,95437.66
2023-03-07T15:52:20.905Z,95439.31
2023-03-07T15:54:49.211Z,95439.44
2023-03-07T15:57:35.485Z,95441.41
2023-03-07T16:00:06.173Z,95432.19
2023-03-07T16:02:32.796Z,95433.00
2023-03-07T16:04:59.869Z,95434.22
2023-03-07T16:07:27.520Z,95433.00
2023-03-07T16:09:54.018Z,95438.97
2023-03-07T16:12:21.225Z,95441.78
2023-03-07T16:14:48.021Z,95443.81
2023-03-07T16:17:29.858Z,95450.41
2023-03-07T16:19:56.398Z,95435.75
2023-03-07T16:22:22.957Z,95449.34
2023-03-07T16:24:49.457Z,95449.34
2023-03-07T16:27:16.904Z,95439.31
2023-03-07T16:29:43.637Z,95446.16
2023-03-07T16:32:11.305Z,95443.34
2023-03-07T16:34:37.780Z,95440.47
2023-03-07T16:37:04.276Z,95446.09
2023-03-07T16:39:30.748Z,95443.63
2023-03-07T16:41:57.316Z,95446.41
2023-03-07T16:44:24.192Z,95445.25
2023-03-07T16:47:12.587Z,95445.25
2023-03-07T16:49:39.061Z,95445.19
2023-03-07T16:52:06.711Z,95453.84
2023-03-07T16:54:33.716Z,95452.22
2023-03-07T16:57:00.642Z,95451.22
2023-03-07T16:59:28.321Z,95451.97
2023-03-07T17:01:54.823Z,95450.38
2023-03-07T17:04:21.298Z,95453.56
2023-03-07T17:06:57.720Z,95453.75
2023-03-07T17:09:27.517Z,95448.75
2023-03-07T17:11:54.026Z,95468.97
2023-03-07T17:14:20.593Z,95459.97
2023-03-07T17:16:47.560Z,95466.47
2023-03-07T17:19:34.326Z,95467.59
2023-03-07T17:22:01.422Z,95469.53
2023-03-07T17:24:29.033Z,95466.94
2023-03-07T17:26:55.665Z,95471.09
2023-03-07T17:29:32.661Z,95469.28
2023-03-07T17:31:59.225Z,95481.56
2023-03-07T17:34:26.562Z,95484.72
2023-03-07T17:36:53.072Z,95482.31
2023-03-07T17:39:20.462Z,95481.88
2023-03-07T17:41:46.984Z,95484.25
2023-03-07T17:44:13.472Z,95479.47
2023-03-07T17:46:40.053Z,95499.06
2023-03-07T17:49:06.578Z,95496.28
2023-03-07T17:51:33.207Z,95491.78
2023-03-07T17:53:59.677Z,95493.59
2023-03-07T17:56:26.213Z,95501.22
2023-03-07T17:58:52.691Z,95496.38
2023-03-07T18:04:47.877Z,95493.28
2023-03-07T18:07:14.349Z,95493.78
2023-03-07T18:09:40.799Z,95505.81
2023-03-07T18:12:07.471Z,95498.16
2023-03-07T18:14:34.003Z,95495.16
2023-03-07T18:17:00.531Z,95496.50
2023-03-07T18:19:27.462Z,95503.34
2023-03-07T18:21:54.325Z,95482.75
2023-03-07T18:24:26.353Z,95494.91
2023-03-07T18:26:53.384Z,95491.75
2023-03-07T18:29:19.895Z,95498.50
2023-03-07T18:31:46.497Z,95497.28
2023-03-07T18:34:13.205Z,95497.50
2023-03-07T18:36:39.972Z,95506.25
2023-03-07T18:39:06.414Z,95505.81
2023-03-07T18:41:32.982Z,95502.41
2023-03-07T18:43:59.552Z,95496.31
2023-03-07T18:46:26.832Z,95495.16
2023-03-07T18:48:53.434Z,95497.66
2023-03-07T18:51:24.812Z,95503.19
2023-03-07T18:53:54.190Z,95495.78
2023-03-07T18:56:20.670Z,95489.75
2023-03-07T18:58:47.261Z,95493.56
2023-03-07T19:01:20.584Z,95492.13
2023-03-07T19:03:47.590Z,95494.66
2023-03-07T19:06:17.067Z,95498.75
2023-03-07T19:08:43.645Z,95492.69
2023-03-07T19:11:10.696Z,95494.78
2023-03-07T19:13:37.198Z,95495.88
2023-03-07T19:16:08.178Z,95491.06
2023-03-07T19:18:34.815Z,95494.44
2023-03-07T19:21:04.535Z,95489.34
2023-03-07T19:23:31.138Z,95488.97
2023-03-07T19:26:00.474Z,95491.50
2023-03-07T19:28:26.960Z,95490.31
2023-03-07T19:30:54.299Z,95495.28
2023-03-07T19:33:20.808Z,95498.88
2023-03-07T19:35:47.335Z,95498.88
2023-03-07T19:38:14.119Z,95487.53
2023-03-07T19:40:40.689Z,95501.53
2023-03-07T19:43:07.185Z,95495.94
2023-03-07T19:45:34.264Z,95497.94
2023-03-07T19:48:00.840Z,95493.97
2023-03-07T19:50:27.330Z,95498.50
2023-03-07T19:52:53.864Z,95503.59
2023-03-07T19:55:20.450Z,95498.38
2023-03-07T19:57:46.973Z,95490.41
2023-03-07T20:00:13.861Z,95506.91
2023-03-07T20:02:40.394Z,95505.91
2023-03-07T20:05:08.330Z,95508.16
2023-03-07T20:07:34.815Z,95511.72
2023-03-07T20:10:01.575Z,95509.78
2023-03-07T20:12:30.666Z,95512.66
2023-03-07T20:14:57.230Z,95510.50
2023-03-07T20:17:24.144Z,95511.69
2023-03-07T20:19:51.150Z,95508.72
2023-03-07T20:22:17.680Z,95521.84
2023-03-07T20:24:44.247Z,95529.34
2023-03-07T20:27:10.819Z,95525.88
2023-03-07T20:29:37.270Z,95537.88
2023-03-07T20:32:03.796Z,95538.50
2023-03-07T20:34:30.462Z,95528.72
2023-03-07T20:36:56.965Z,95537.97
2023-03-07T20:39:23.556Z,95538.50
2023-03-07T20:41:50.132Z,95543.09
2023-03-07T20:44:16.729Z,95543.09
2023-03-07T20:46:43.456Z,95538.88
2023-03-07T20:49:11.146Z,95540.22
2023-03-07T20:51:37.837Z,95541.13
2023-03-07T20:54:05.233Z,95540.72
2023-03-07T20:56:32.401Z,95544.69
2023-03-07T20:58:59.158Z,95549.75
2023-03-07T21:01:26.231Z,95555.84
2023-03-07T21:03:53.902Z,95558.97
2023-03-07T21:06:20.461Z,95557.44
2023-03-07T21:08:50.101Z,95564.91
2023-03-07T21:11:17.394Z,95569.50
2023-03-07T21:13:44.377Z,95572.72
2023-03-07T21:16:11.885Z,95568.56
2023-03-07T21:18:38.410Z,95577.03
2023-03-07T21:21:05.767Z,95593.44
2023-03-07T21:23:32.261Z,95596.69
2023-03-07T21:25:59.372Z,95610.63
2023-03-07T21:28:26.253Z,95628.66
2023-03-07T21:30:58.624Z,95646.78
2023-03-07T21:33:25.521Z,95650.13
2023-03-07T21:35:53.121Z,95669.22
2023-03-07T21:38:19.816Z,95683.28
2023-03-07T21:40:46.668Z,95710.16
2023-03-07T21:43:14.682Z,95727.22
2023-03-07T21:45:41.595Z,95744.50
2023-03-07T21:48:08.723Z,95774.94
2023-03-07T21:50:35.697Z,95786.31
2023-03-07T21:53:02.406Z,95804.09
2023-03-07T21:55:28.919Z,95824.50
2023-03-07T21:57:55.331Z,95846.56
2023-03-07T22:00:22.111Z,95863.41
2023-03-07T22:02:48.717Z,95879.72
2023-03-07T22:05:15.222Z,95902.28
2023-03-07T22:07:41.765Z,95921.53
2023-03-07T22:10:08.640Z,95938.66
2023-03-07T22:12:35.330Z,95947.59
2023-03-07T22:15:01.981Z,95959.22
2023-03-07T22:17:28.563Z,95967.59
2023-03-07T22:19:55.106Z,95976.72
2023-03-07T22:22:21.754Z,95993.53
2023-03-07T22:24:48.771Z,96004.16
2023-03-07T22:27:15.428Z,96023.72
2023-03-07T22:29:42.051Z,96039.66
2023-03-07T22:32:08.558Z,96045.56
2023-03-07T22:34:35.107Z,96050.56
2023-03-07T22:37:01.579Z,96061.31
2023-03-07T22:39:28.030Z,96079.44
2023-03-07T22:41:54.751Z,96092.38
2023-03-07T22:44:21.230Z,96103.19
2023-03-07T22:46:49.097Z,96114.72
2023-03-07T22:49:15.541Z,96134.03
2023-03-07T22:51:42.025Z,96123.28
2023-03-07T22:54:08.758Z,96118.66
2023-03-07T22:56:35.312Z,96134.19
2023-03-07T22:59:02.153Z,96147.59
2023-03-07T23:01:28.826Z,96163.22
2023-03-07T23:03:55.683Z,96174.94
2023-03-07T23:06:22.473Z,96188.25
2023-03-07T23:08:49.987Z,96191.47
2023-03-07T23:11:16.717Z,96203.91
2023-03-07T23:13:43.186Z,96208.06
2023-03-07T23:16:13.409Z,96215.22
2023-03-07T23:18:40.398Z,96204.91
2023-03-07T23:21:07.353Z,96213.94
2023-03-07T23:23:33.825Z,96223.91
2023-03-07T23:26:00.367Z,96239.06
2023-03-07T23:28:26.940Z,96242.81
2023-03-07T23:30:53.598Z,96240.03
2023-03-07T23:33:20.143Z,96242.81
2023-03-07T23:35:46.661Z,96251.06
2023-03-07T23:38:13.179Z,96252.88
2023-03-07T23:40:39.667Z,96267.34
2023-03-07T23:43:06.255Z,96253.53
2023-03-07T23:45:32.749Z,96263.00
2023-03-07T23:47:59.247Z,96250.25
2023-03-07T23:50:25.921Z,96248.72
2023-03-07T23:52:52.433Z,96260.69
2023-03-07T23:55:19.008Z,96259.06
2023-03-07T23:57:46.053Z,96270.78
